Terminal Aerodrome Forecast
Issued by NWS

Home | Current Version | Previous Version | Graphics & Text | Print | Product List | Glossary On
Versions: 1 2 3 4 5 6 7 8 9 10 11 12 13 14 15 16 17 18 19
317
FTUS43 KMPX 140520
TAFRWF
TAF
KRWF 140520Z 1406/1506 14017KT 1 1/2SM -SN BKN025 OVC040
      TEMPO 1409/1412 3/4SM -SN OVC015
     FM141300 15014G20KT 3SM -SN OVC015
     FM142300 16008KT P6SM OVC010=

USA.gov is the U.S. government's official web portal to all federal, state and local government web resources and services.